Decoded Metar for KSMO (SANTA MONICA in CA, USA) (IATA:SMO) | Meteo·Mobile Aviation Weather
aviador You're here:

KSMO Decoded Metar

SANTA MONICA in CA, USA
Report Time2018-11-12 21:51:00
UTC Time2018-11-12 22:21:48
Flight Rules vfr VFR
Wind220° at 07 kt
W.Decomp.*RWY 21: 7.0 kt HW 0.6 kt LCW
W.Rank220° ranks 3
Current wind is above 220° avg. (6.3)
Visibility9999 m
Phenomena:N/A
Clouds:N/A
Expected CloudBase > 14,800 ft AGL from Temp-Dew spread
CeilingNone
Temp25°C (ISA +10)
Dew Point-12°C (8% RH)
AAT19.3°C
QNH1023 hPa
Density Alt1,096 ft
Elevation187 ft
Report Wrong Elevation
Raw Report
KSMO 122151Z COR 22007KT 10SM CLR 25/M12 A3020 RMK AO2 SLP225
T02501117=

Extra information for KSMO:More info

Metar Taf Metar & Taf Last 4 Metars F.Rules Stats Wind Profile Meteogram Temp Stats Airport Information Weather charts Add Link Nearby VenuesMetar ALERT Operation Metar Decoded Social comments

AIRNAV info for KSMO